createdAt,value
2018-07-14T00:00:06.819Z,12.97
2018-07-14T00:02:35.643Z,7.37
2018-07-14T00:05:04.538Z,9.47
2018-07-14T00:07:33.359Z,10.13
2018-07-14T00:10:02.313Z,7.93
2018-07-14T00:12:31.091Z,10.73
2018-07-14T00:14:59.922Z,7.10
2018-07-14T00:17:28.770Z,6.70
2018-07-14T00:19:57.617Z,6.90
2018-07-14T00:22:26.449Z,10.73
2018-07-14T00:24:55.326Z,9.37
2018-07-14T00:27:24.166Z,8.83
2018-07-14T00:29:53.109Z,12.63
2018-07-14T00:32:21.930Z,6.47
2018-07-14T00:34:50.872Z,6.40
2018-07-14T00:37:19.730Z,11.50
2018-07-14T00:39:48.585Z,8.27
2018-07-14T00:42:17.458Z,7.00
2018-07-14T00:44:46.290Z,7.93
2018-07-14T00:47:15.136Z,10.60
2018-07-14T00:49:43.965Z,7.20
2018-07-14T00:52:13.825Z,8.10
2018-07-14T00:54:42.701Z,8.80
2018-07-14T00:57:11.690Z,10.17
2018-07-14T00:59:40.371Z,10.00
2018-07-14T01:02:09.058Z,11.07
2018-07-14T01:04:37.670Z,6.90
2018-07-14T01:07:06.494Z,8.67
2018-07-14T01:09:35.325Z,8.03
2018-07-14T01:12:04.163Z,8.43
2018-07-14T01:14:32.998Z,11.37
2018-07-14T01:17:01.822Z,7.57
2018-07-14T01:19:30.671Z,9.27
2018-07-14T01:21:59.639Z,12.17
2018-07-14T01:24:28.722Z,9.23
2018-07-14T01:26:57.594Z,12.87
2018-07-14T01:29:26.430Z,15.30
2018-07-14T01:31:55.054Z,8.60
2018-07-14T01:34:23.766Z,12.60
2018-07-14T01:36:52.890Z,14.50
2018-07-14T01:39:21.718Z,10.87
2018-07-14T01:41:50.563Z,9.27
2018-07-14T01:44:19.432Z,9.13
2018-07-14T01:46:48.468Z,10.40
2018-07-14T01:49:17.694Z,11.00
2018-07-14T01:51:46.772Z,13.07
2018-07-14T01:54:15.734Z,10.93
2018-07-14T01:56:44.496Z,9.13
2018-07-14T01:59:13.278Z,10.13
2018-07-14T02:01:42.208Z,7.90
2018-07-14T02:04:11.074Z,11.33
2018-07-14T02:06:40.007Z,9.40
2018-07-14T02:09:08.870Z,9.20
2018-07-14T02:11:37.791Z,10.63
2018-07-14T02:14:06.661Z,8.13
2018-07-14T02:16:35.590Z,14.33
2018-07-14T02:19:04.447Z,9.30
2018-07-14T02:21:33.294Z,11.07
2018-07-14T02:24:02.324Z,10.87
2018-07-14T02:26:31.405Z,12.40
2018-07-14T02:29:00.187Z,9.63
2018-07-14T02:31:28.922Z,15.27
2018-07-14T02:33:57.879Z,9.80
2018-07-14T02:36:26.748Z,11.67
2018-07-14T02:38:55.679Z,8.60
2018-07-14T02:41:24.598Z,13.33
2018-07-14T02:43:53.467Z,10.00
2018-07-14T02:46:22.474Z,8.50
2018-07-14T02:48:51.430Z,10.97
2018-07-14T02:51:20.322Z,9.70
2018-07-14T02:53:49.166Z,9.40
2018-07-14T02:56:18.149Z,9.23
2018-07-14T02:58:46.999Z,13.07
2018-07-14T03:01:15.866Z,10.60
2018-07-14T03:03:44.776Z,11.30
2018-07-14T03:06:13.658Z,10.07
2018-07-14T03:08:42.496Z,10.17
2018-07-14T03:11:11.376Z,9.33
2018-07-14T03:13:40.231Z,9.27
2018-07-14T03:16:09.215Z,10.17
2018-07-14T03:18:38.224Z,13.47
2018-07-14T03:21:07.111Z,9.00
2018-07-14T03:23:36.112Z,10.63
2018-07-14T03:26:05.171Z,10.97
2018-07-14T03:28:34.221Z,8.93
2018-07-14T03:31:03.206Z,10.60
2018-07-14T03:33:32.151Z,12.23
2018-07-14T03:36:01.147Z,12.10
2018-07-14T03:38:30.028Z,10.20
2018-07-14T03:40:58.673Z,13.23
2018-07-14T03:43:27.582Z,9.23
2018-07-14T03:45:56.578Z,14.23
2018-07-14T03:48:25.495Z,9.67
2018-07-14T03:50:54.422Z,8.93
2018-07-14T03:53:23.342Z,9.37
2018-07-14T03:55:52.240Z,12.87
2018-07-14T03:58:21.150Z,9.37
2018-07-14T04:00:50.058Z,10.10
2018-07-14T04:03:18.954Z,10.27
2018-07-14T04:05:47.850Z,9.73
2018-07-14T04:08:16.701Z,13.97
2018-07-14T04:10:45.538Z,10.03
2018-07-14T04:13:14.384Z,9.90
2018-07-14T04:15:43.291Z,11.30
2018-07-14T04:18:12.669Z,11.87
2018-07-14T04:20:41.508Z,9.37
2018-07-14T04:23:10.382Z,10.97
2018-07-14T04:25:39.236Z,10.57
2018-07-14T04:28:08.090Z,11.17
2018-07-14T04:30:37.170Z,9.93
2018-07-14T04:33:05.990Z,8.43
2018-07-14T04:35:34.802Z,9.80
2018-07-14T04:38:03.698Z,12.17
2018-07-14T04:40:33.213Z,15.13
2018-07-14T04:43:02.295Z,9.77
2018-07-14T04:45:31.106Z,9.60
2018-07-14T04:47:59.982Z,10.20
2018-07-14T04:50:28.842Z,9.73
2018-07-14T04:52:57.735Z,11.93
2018-07-14T04:55:26.932Z,8.87
2018-07-14T04:57:55.573Z,11.50
2018-07-14T05:00:24.395Z,10.43
2018-07-14T05:02:53.469Z,11.37
2018-07-14T05:05:22.315Z,9.25
2018-07-14T05:07:51.588Z,9.83
2018-07-14T05:10:20.594Z,9.83
2018-07-14T05:12:49.575Z,14.43
2018-07-14T05:15:18.531Z,13.00
2018-07-14T05:17:47.453Z,11.03
2018-07-14T05:20:16.437Z,9.10
2018-07-14T05:22:45.338Z,13.50
2018-07-14T05:25:17.644Z,12.20
2018-07-14T05:27:46.588Z,11.10
2018-07-14T05:30:15.404Z,9.87
2018-07-14T05:32:44.178Z,13.00
2018-07-14T05:35:13.317Z,11.57
2018-07-14T05:37:42.344Z,11.47
2018-07-14T05:40:11.267Z,8.20
2018-07-14T05:42:40.203Z,10.77
2018-07-14T05:45:09.234Z,10.67
2018-07-14T05:47:38.108Z,8.17
2018-07-14T05:50:07.003Z,10.53
2018-07-14T05:52:35.983Z,9.53
2018-07-14T05:55:04.887Z,8.90
2018-07-14T05:57:33.716Z,13.50
2018-07-14T06:00:02.585Z,14.40
2018-07-14T06:02:31.278Z,10.13
2018-07-14T06:05:00.094Z,11.90
2018-07-14T06:07:28.929Z,10.93
2018-07-14T06:09:57.841Z,11.03
2018-07-14T06:12:26.709Z,8.87
2018-07-14T06:14:55.896Z,8.53
2018-07-14T06:17:24.926Z,9.73
2018-07-14T06:19:53.565Z,9.30
2018-07-14T06:22:22.510Z,13.77
2018-07-14T06:24:51.414Z,13.73
2018-07-14T06:27:20.301Z,10.50
2018-07-14T06:29:49.154Z,8.90
2018-07-14T06:32:18.202Z,11.83
2018-07-14T06:34:47.506Z,10.43
2018-07-14T06:37:16.410Z,9.33
2018-07-14T06:39:45.382Z,8.97
2018-07-14T06:42:14.234Z,9.77
2018-07-14T06:44:43.114Z,14.90
2018-07-14T06:47:11.914Z,12.10
2018-07-14T06:49:40.791Z,10.20
2018-07-14T06:52:09.690Z,13.77
2018-07-14T06:54:38.713Z,12.90
2018-07-14T06:57:08.600Z,9.57
2018-07-14T06:59:37.746Z,9.97
2018-07-14T07:02:06.373Z,10.93
2018-07-14T07:04:35.110Z,14.10
2018-07-14T07:07:03.786Z,11.47
2018-07-14T07:09:32.563Z,9.37
2018-07-14T07:12:01.459Z,9.50
2018-07-14T07:14:30.314Z,9.47
2018-07-14T07:16:59.287Z,5.90
2018-07-14T07:19:28.282Z,5.33
2018-07-14T07:21:57.259Z,8.83
2018-07-14T07:24:26.143Z,9.03
2018-07-14T07:26:55.107Z,9.00
2018-07-14T07:29:24.154Z,10.00
2018-07-14T07:31:53.033Z,10.07
2018-07-14T07:34:22.046Z,8.27
2018-07-14T07:36:51.063Z,6.57
2018-07-14T07:39:19.942Z,9.50
2018-07-14T07:41:48.859Z,8.73
2018-07-14T07:44:17.969Z,8.27
2018-07-14T07:46:46.826Z,9.20
2018-07-14T07:49:15.790Z,6.47
2018-07-14T07:51:44.667Z,7.43
2018-07-14T07:54:13.790Z,9.97
2018-07-14T07:56:42.748Z,5.30
2018-07-14T07:59:11.604Z,6.53
2018-07-14T08:01:40.478Z,7.20
2018-07-14T08:04:09.366Z,7.53
2018-07-14T08:06:38.358Z,7.17
2018-07-14T08:09:07.667Z,10.33
2018-07-14T08:11:36.622Z,5.27
2018-07-14T08:14:06.241Z,7.60
2018-07-14T08:16:35.158Z,5.93
2018-07-14T08:19:04.048Z,5.97
2018-07-14T08:21:33.015Z,6.07
2018-07-14T08:24:02.111Z,7.63
2018-07-14T08:26:31.519Z,7.03
2018-07-14T08:29:00.430Z,7.90
2018-07-14T08:31:29.274Z,7.70
2018-07-14T08:33:58.210Z,4.80
2018-07-14T08:36:27.036Z,7.17
2018-07-14T08:38:55.961Z,4.93
2018-07-14T08:41:24.835Z,7.93
2018-07-14T08:43:53.697Z,4.03
2018-07-14T08:46:22.367Z,9.20
2018-07-14T08:48:51.130Z,4.77
2018-07-14T08:51:19.980Z,7.23
2018-07-14T08:53:48.843Z,3.93
2018-07-14T08:56:17.769Z,4.33
2018-07-14T08:58:46.675Z,4.77
2018-07-14T09:01:15.607Z,4.57
2018-07-14T09:03:44.548Z,7.03
2018-07-14T09:06:13.466Z,6.43
2018-07-14T09:08:42.586Z,4.90
2018-07-14T09:11:11.481Z,3.37
2018-07-14T09:13:40.391Z,3.60
2018-07-14T09:16:09.301Z,5.33
2018-07-14T09:18:38.142Z,7.17
2018-07-14T09:21:07.037Z,9.80
2018-07-14T09:23:35.801Z,4.87
2018-07-14T09:26:04.533Z,6.37
2018-07-14T09:28:33.294Z,4.00
2018-07-14T09:31:02.206Z,4.87
2018-07-14T09:33:31.075Z,4.40
2018-07-14T09:35:59.964Z,4.97
2018-07-14T09:38:28.858Z,6.13
2018-07-14T09:40:57.763Z,5.33
2018-07-14T09:43:26.999Z,5.50
2018-07-14T09:45:56.142Z,4.67
2018-07-14T09:48:25.032Z,3.57
2018-07-14T09:50:53.929Z,5.00
2018-07-14T09:53:22.829Z,4.95
2018-07-14T09:55:51.689Z,5.80
2018-07-14T09:58:20.554Z,3.60
2018-07-14T10:00:54.954Z,3.17
2018-07-14T10:03:23.878Z,2.47
2018-07-14T10:05:52.692Z,5.53
2018-07-14T10:08:21.535Z,2.90
2018-07-14T10:10:50.434Z,3.37
2018-07-14T10:13:19.499Z,2.13
2018-07-14T10:15:48.335Z,2.83
2018-07-14T10:18:17.199Z,3.17
2018-07-14T10:20:46.046Z,4.73
2018-07-14T10:23:14.911Z,3.30
2018-07-14T10:25:43.877Z,6.63
2018-07-14T10:28:12.919Z,4.97
2018-07-14T10:30:41.802Z,4.47
2018-07-14T10:33:11.716Z,3.17
2018-07-14T10:35:40.750Z,4.60
2018-07-14T10:38:09.715Z,4.40
2018-07-14T10:40:38.591Z,2.87
2018-07-14T10:43:07.435Z,2.83
2018-07-14T10:45:36.283Z,3.27
2018-07-14T10:48:05.187Z,4.27
2018-07-14T10:50:34.023Z,2.70
2018-07-14T10:53:02.938Z,4.80
2018-07-14T10:55:31.830Z,2.80
2018-07-14T10:58:00.731Z,3.53
2018-07-14T11:00:29.534Z,2.00
2018-07-14T11:02:58.370Z,2.03
2018-07-14T11:05:27.550Z,2.37
2018-07-14T11:07:56.182Z,2.77
2018-07-14T11:10:24.905Z,2.30
2018-07-14T11:12:53.766Z,2.43
2018-07-14T11:15:22.610Z,7.50
2018-07-14T11:17:51.496Z,2.07
2018-07-14T11:20:20.346Z,3.93
2018-07-14T11:22:49.242Z,4.13
2018-07-14T11:25:18.152Z,2.67
2018-07-14T11:27:47.050Z,4.43
2018-07-14T11:30:16.388Z,3.07
2018-07-14T11:32:45.994Z,1.63
2018-07-14T11:35:15.015Z,2.43
2018-07-14T11:37:43.988Z,1.70
2018-07-14T11:40:13.107Z,4.17
2018-07-14T11:42:42.438Z,3.70
2018-07-14T11:45:11.319Z,2.00
2018-07-14T11:47:41.859Z,2.03
2018-07-14T11:50:12.035Z,2.63
2018-07-14T11:52:40.894Z,2.97
2018-07-14T11:55:09.796Z,2.20
2018-07-14T11:57:38.655Z,1.50
2018-07-14T12:00:07.951Z,2.27
2018-07-14T12:02:36.826Z,3.03
2018-07-14T12:05:05.711Z,4.73
2018-07-14T12:07:34.360Z,1.50
2018-07-14T12:10:03.108Z,2.80
2018-07-14T12:12:32.314Z,1.50
2018-07-14T12:15:01.187Z,1.97
2018-07-14T12:17:30.024Z,4.10
2018-07-14T12:19:58.866Z,2.87
2018-07-14T12:22:27.784Z,1.43
2018-07-14T12:24:56.627Z,2.10
2018-07-14T12:27:25.515Z,1.00
2018-07-14T12:29:54.362Z,1.00
2018-07-14T12:32:23.218Z,1.83
2018-07-14T12:34:52.061Z,1.30
2018-07-14T12:37:20.938Z,2.63
2018-07-14T12:39:49.807Z,4.47
2018-07-14T12:42:18.638Z,2.20
2018-07-14T12:44:47.552Z,1.60
2018-07-14T12:47:16.469Z,1.10
2018-07-14T12:49:45.507Z,0.97
2018-07-14T12:52:14.437Z,1.20
2018-07-14T12:54:43.288Z,4.10
2018-07-14T12:57:12.138Z,2.70
2018-07-14T12:59:40.986Z,1.23
2018-07-14T13:02:09.882Z,3.10
2018-07-14T13:04:38.749Z,2.27
2018-07-14T13:07:07.680Z,2.50
2018-07-14T13:09:36.650Z,1.37
2018-07-14T13:12:05.597Z,2.17
2018-07-14T13:14:35.022Z,1.50
2018-07-14T13:17:07.294Z,1.30
2018-07-14T13:19:36.094Z,2.90
2018-07-14T13:22:04.967Z,2.87
2018-07-14T13:24:33.823Z,2.20
2018-07-14T13:27:02.843Z,4.10
2018-07-14T13:29:31.702Z,1.83
2018-07-14T13:32:00.870Z,1.70
2018-07-14T13:34:29.792Z,1.40
2018-07-14T13:36:58.766Z,2.33
2018-07-14T13:39:27.634Z,11.70
2018-07-14T13:41:56.534Z,1.80
2018-07-14T13:44:25.711Z,2.13
2018-07-14T13:46:54.417Z,2.10
2018-07-14T13:49:23.146Z,1.90
2018-07-14T13:51:52.055Z,1.37
2018-07-14T13:54:20.737Z,1.10
2018-07-14T13:56:49.674Z,1.03
2018-07-14T13:59:18.534Z,2.10
2018-07-14T14:01:47.390Z,2.20
2018-07-14T14:04:16.299Z,1.30
2018-07-14T14:06:45.166Z,0.80
2018-07-14T14:09:14.028Z,1.10
2018-07-14T14:11:42.875Z,4.40
2018-07-14T14:14:11.721Z,4.37
2018-07-14T14:16:40.702Z,3.83
2018-07-14T14:19:09.564Z,1.37
2018-07-14T14:21:38.414Z,1.27
2018-07-14T14:24:07.391Z,1.37
2018-07-14T14:26:36.242Z,1.20
2018-07-14T14:29:05.122Z,1.10
2018-07-14T14:31:33.959Z,5.77
2018-07-14T14:34:02.802Z,1.30
2018-07-14T14:36:31.652Z,4.77
2018-07-14T14:39:00.719Z,1.83
2018-07-14T14:41:29.556Z,1.23
2018-07-14T14:43:58.460Z,2.23
2018-07-14T14:46:27.294Z,1.07
2018-07-14T14:48:56.130Z,1.83
2018-07-14T14:51:25.009Z,1.13
2018-07-14T14:53:53.856Z,1.30
2018-07-14T14:56:22.716Z,3.27
2018-07-14T14:58:51.597Z,1.30
2018-07-14T15:01:20.462Z,2.87
2018-07-14T15:03:49.322Z,1.03
2018-07-14T15:06:18.294Z,1.43
2018-07-14T15:08:47.127Z,2.73
2018-07-14T15:11:16.714Z,2.90
2018-07-14T15:13:45.481Z,2.27
2018-07-14T15:16:14.306Z,1.10
2018-07-14T15:18:43.185Z,0.90
2018-07-14T15:21:12.047Z,0.90
2018-07-14T15:23:40.940Z,1.20
2018-07-14T15:26:09.904Z,1.20
2018-07-14T15:28:38.767Z,5.33
2018-07-14T15:31:07.401Z,1.67
2018-07-14T15:33:36.112Z,0.93
2018-07-14T15:36:05.726Z,1.47
2018-07-14T15:38:34.349Z,3.17
2018-07-14T15:41:03.053Z,2.90
2018-07-14T15:43:31.934Z,2.30
2018-07-14T15:46:00.779Z,1.27
2018-07-14T15:48:29.394Z,2.00
2018-07-14T15:50:58.102Z,2.53
2018-07-14T15:53:27.001Z,8.03
2018-07-14T15:55:55.851Z,2.20
2018-07-14T15:58:24.718Z,2.47
2018-07-14T16:00:53.602Z,2.43
2018-07-14T16:03:22.508Z,2.80
2018-07-14T16:05:51.113Z,1.77
2018-07-14T16:08:19.826Z,4.43
2018-07-14T16:10:48.710Z,1.80
2018-07-14T16:13:17.546Z,1.83
2018-07-14T16:15:46.182Z,1.40
2018-07-14T16:18:15.031Z,1.90
2018-07-14T16:20:43.902Z,2.23
2018-07-14T16:23:12.545Z,7.90
2018-07-14T16:25:41.292Z,69.23
2018-07-14T16:28:10.172Z,193.20
2018-07-14T16:30:39.046Z,195.03
2018-07-14T16:33:08.150Z,159.57
2018-07-14T16:35:37.087Z,455.77
2018-07-14T16:38:06.734Z,289.07
2018-07-14T16:40:35.550Z,281.27
2018-07-14T16:43:04.679Z,329.43
2018-07-14T16:45:33.773Z,267.33
2018-07-14T16:48:02.620Z,188.07
2018-07-14T16:50:31.471Z,168.77
2018-07-14T16:53:00.322Z,93.77
2018-07-14T16:55:29.253Z,103.00
2018-07-14T16:57:57.989Z,69.63
2018-07-14T17:00:26.769Z,68.70
2018-07-14T17:02:55.730Z,60.20
2018-07-14T17:05:24.642Z,46.60
2018-07-14T17:07:53.566Z,47.33
2018-07-14T17:10:22.675Z,31.90
2018-07-14T17:12:51.562Z,38.07
2018-07-14T17:15:20.430Z,53.47
2018-07-14T17:17:49.319Z,41.50
2018-07-14T17:20:18.213Z,24.67
2018-07-14T17:22:47.087Z,18.30
2018-07-14T17:25:15.957Z,20.33
2018-07-14T17:27:44.814Z,12.47
2018-07-14T17:30:13.720Z,11.17
2018-07-14T17:32:42.594Z,8.07
2018-07-14T17:35:11.531Z,12.83
2018-07-14T17:37:40.376Z,9.43
2018-07-14T17:40:09.206Z,6.90
2018-07-14T17:42:38.066Z,7.93
2018-07-14T17:45:07.014Z,6.63
2018-07-14T17:47:36.102Z,9.40
2018-07-14T17:50:04.966Z,4.63
2018-07-14T17:52:34.052Z,5.50
2018-07-14T17:55:02.907Z,5.80
2018-07-14T17:57:31.864Z,2.57
2018-07-14T18:00:00.839Z,4.27
2018-07-14T18:02:29.627Z,5.83
2018-07-14T18:04:58.492Z,6.20
2018-07-14T18:07:27.523Z,6.87
2018-07-14T18:09:56.404Z,4.80
2018-07-14T18:12:25.815Z,4.90
2018-07-14T18:14:54.638Z,2.33
2018-07-14T18:17:23.475Z,4.37
2018-07-14T18:19:52.156Z,3.80
2018-07-14T18:22:20.914Z,2.90
2018-07-14T18:24:49.774Z,3.53
2018-07-14T18:27:18.642Z,4.57
2018-07-14T18:29:47.526Z,1.60
2018-07-14T18:32:16.371Z,1.40
2018-07-14T18:34:45.265Z,3.60
2018-07-14T18:37:14.102Z,3.00
2018-07-14T18:39:42.938Z,3.37
2018-07-14T18:42:11.794Z,1.83
2018-07-14T18:44:40.668Z,2.03
2018-07-14T18:47:09.514Z,1.20
2018-07-14T18:49:39.159Z,1.20
2018-07-14T18:52:08.103Z,1.60
2018-07-14T18:54:36.940Z,1.20
2018-07-14T18:57:05.814Z,2.33
2018-07-14T18:59:34.672Z,1.70
2018-07-14T19:02:03.782Z,12.87
2018-07-14T19:04:32.615Z,1.00
2018-07-14T19:07:01.474Z,1.40
2018-07-14T19:09:30.325Z,1.73
2018-07-14T19:11:59.163Z,5.37
2018-07-14T19:14:28.042Z,1.80
2018-07-14T19:16:56.917Z,3.00
2018-07-14T19:19:25.814Z,1.23
2018-07-14T19:21:54.678Z,5.80
2018-07-14T19:24:23.560Z,4.20
2018-07-14T19:26:52.420Z,2.13
2018-07-14T19:29:21.326Z,1.13
2018-07-14T19:31:50.185Z,1.30
2018-07-14T19:34:19.011Z,1.30
2018-07-14T19:36:47.938Z,1.73
2018-07-14T19:39:17.022Z,1.53
2018-07-14T19:41:45.901Z,3.40
2018-07-14T19:44:14.766Z,2.30
2018-07-14T19:46:43.626Z,3.57
2018-07-14T19:49:12.474Z,2.03
2018-07-14T19:51:41.121Z,1.47
2018-07-14T19:54:09.893Z,4.43
2018-07-14T19:56:38.722Z,2.80
2018-07-14T19:59:07.583Z,2.37
2018-07-14T20:01:36.470Z,2.87
2018-07-14T20:04:05.596Z,2.67
2018-07-14T20:06:34.466Z,1.77
2018-07-14T20:09:04.861Z,1.60
2018-07-14T20:11:33.780Z,2.27
2018-07-14T20:14:02.566Z,1.73
2018-07-14T20:16:31.491Z,0.93
2018-07-14T20:19:00.362Z,2.50
2018-07-14T20:21:29.274Z,1.57
2018-07-14T20:23:58.111Z,1.87
2018-07-14T20:26:27.034Z,1.17
2018-07-14T20:28:55.942Z,2.10
2018-07-14T20:31:24.794Z,2.83
2018-07-14T20:33:53.652Z,2.70
2018-07-14T20:36:22.545Z,2.70
2018-07-14T20:38:51.457Z,1.37
2018-07-14T20:41:20.313Z,1.47
2018-07-14T20:43:49.319Z,1.93
2018-07-14T20:46:18.155Z,2.97
2018-07-14T20:48:46.995Z,1.77
2018-07-14T20:51:15.830Z,1.90
2018-07-14T20:53:44.703Z,1.50
2018-07-14T20:56:13.518Z,1.40
2018-07-14T20:58:42.389Z,1.47
2018-07-14T21:01:11.218Z,4.43
2018-07-14T21:03:40.070Z,2.50
2018-07-14T21:06:09.417Z,1.70
2018-07-14T21:08:37.994Z,2.20
2018-07-14T21:20:48.047Z,1.77
2018-07-14T21:25:53.827Z,3.30
2018-07-14T21:28:22.675Z,2.23
2018-07-14T21:30:51.534Z,2.27
2018-07-14T21:33:20.358Z,2.97
2018-07-14T21:35:49.290Z,1.50
2018-07-14T21:38:17.930Z,2.83
2018-07-14T21:40:46.607Z,1.50
2018-07-14T21:43:15.465Z,1.53
2018-07-14T21:45:44.289Z,1.47
2018-07-14T21:48:13.150Z,2.03
2018-07-14T21:50:42.060Z,3.93
2018-07-14T21:53:10.835Z,2.90
2018-07-14T21:55:39.671Z,1.33
2018-07-14T21:58:08.505Z,1.30
2018-07-14T22:00:42.821Z,2.27
2018-07-14T22:03:11.682Z,3.77
2018-07-14T22:05:40.518Z,2.10
2018-07-14T22:08:09.394Z,1.57
2018-07-14T22:10:38.230Z,1.17
2018-07-14T22:13:07.082Z,1.57
2018-07-14T22:15:35.924Z,1.47
2018-07-14T22:18:04.804Z,2.00
2018-07-14T22:20:33.642Z,1.67
2018-07-14T22:23:02.454Z,1.67
2018-07-14T22:25:31.363Z,1.40
2018-07-14T22:28:00.193Z,2.20
2018-07-14T22:30:29.062Z,1.20
2018-07-14T22:32:57.952Z,4.77
2018-07-14T22:35:26.766Z,1.10
2018-07-14T22:37:55.630Z,1.00
2018-07-14T22:40:24.446Z,1.23
2018-07-14T22:42:53.322Z,1.60
2018-07-14T22:45:22.292Z,1.93
2018-07-14T22:47:51.086Z,1.30
2018-07-14T22:50:20.011Z,2.93
2018-07-14T22:52:48.974Z,1.30
2018-07-14T22:55:17.707Z,1.40
2018-07-14T22:57:46.964Z,2.40
2018-07-14T23:00:15.580Z,1.90
2018-07-14T23:02:44.299Z,1.13
2018-07-14T23:05:13.157Z,2.70
2018-07-14T23:07:42.058Z,1.00
2018-07-14T23:10:12.526Z,2.34
2018-07-14T23:12:41.138Z,1.27
2018-07-14T23:15:09.830Z,2.30
2018-07-14T23:17:38.656Z,1.93
2018-07-14T23:20:07.486Z,5.33
2018-07-14T23:22:36.366Z,3.47
2018-07-14T23:25:05.330Z,1.57
2018-07-14T23:27:34.166Z,1.40
2018-07-14T23:30:03.015Z,2.43
2018-07-14T23:32:31.862Z,2.53
2018-07-14T23:35:00.746Z,1.47
2018-07-14T23:37:29.638Z,1.23
2018-07-14T23:39:58.494Z,1.67
2018-07-14T23:42:27.342Z,1.20
2018-07-14T23:44:56.199Z,2.60
2018-07-14T23:47:25.562Z,1.87
2018-07-14T23:49:54.213Z,1.50
2018-07-14T23:52:22.966Z,4.87
2018-07-14T23:54:51.818Z,2.10
2018-07-14T23:57:20.698Z,1.57
2018-07-14T23:59:49.922Z,2.50
